Zakirovskiy Airport

Jump to: basic info | weather | comments

Related pages: nearby airports | nearby navaids

Basic information (top)

Location: lon 43.448002, lat 77.049599, elev 2,038 ft / 621 m msl
Status: small_airport

Weather (top)

Current conditions for Almaty Airport 6nm (11km) S (rec'd 2015/04/28 06:30Z):

UAAA 280630Z 04006MPS 020V080 9999 FEW050 18/07 Q1025 R88/65D NOSIG

Airport forecast for Almaty Airport 6nm (11km) S (rec'd 2015/04/28 06:18Z):

TAF TAF UAAA 280500Z 2806/2906 04005MPS 9999 SCT050CB BKN100 TX20/2809Z TN09/2901Z 
      TEMPO 2807/2815 VRB12MPS -TSRA SQ BKN050CB BKN100 
      TEMPO 2815/2818 16005MPS 3000 BR FU

Latest comments (top)

No comments yet for Zakirovskiy Airport

More... (top)

See also NOTAMs and nearby airports and navaids, or visit the Zakirovskiy Airport page at the main OurAirports website..